sensor_id;sensor_type;location;lat;lon;timestamp;P1;durP1;ratioP1;P2;durP2;ratioP2
20908;SDS011;10614;53.198;6.570;2022-09-09T00:01:23;2.53;;;1.70;;
20908;SDS011;10614;53.198;6.570;2022-09-09T00:03:34;4.15;;;2.22;;
20908;SDS011;10614;53.198;6.570;2022-09-09T00:05:44;4.50;;;2.00;;
20908;SDS011;10614;53.198;6.570;2022-09-09T00:07:55;2.83;;;1.80;;
20908;SDS011;10614;53.198;6.570;2022-09-09T00:10:03;3.50;;;2.00;;
20908;SDS011;10614;53.198;6.570;2022-09-09T00:12:15;4.32;;;2.33;;
20908;SDS011;10614;53.198;6.570;2022-09-09T00:14:23;2.72;;;1.90;;
20908;SDS011;10614;53.198;6.570;2022-09-09T00:16:36;4.20;;;2.53;;
20908;SDS011;10614;53.198;6.570;2022-09-09T00:18:45;3.08;;;1.77;;
20908;SDS011;10614;53.198;6.570;2022-09-09T00:20:53;3.50;;;2.28;;
20908;SDS011;10614;53.198;6.570;2022-09-09T00:23:00;3.90;;;2.50;;
20908;SDS011;10614;53.198;6.570;2022-09-09T00:25:12;3.08;;;1.95;;
20908;SDS011;10614;53.198;6.570;2022-09-09T00:27:23;3.15;;;2.13;;
20908;SDS011;10614;53.198;6.570;2022-09-09T00:29:33;4.28;;;1.95;;
20908;SDS011;10614;53.198;6.570;2022-09-09T00:31:43;5.90;;;2.95;;
20908;SDS011;10614;53.198;6.570;2022-09-09T00:33:46;4.10;;;2.30;;
20908;SDS011;10614;53.198;6.570;2022-09-09T00:35:51;3.28;;;2.00;;
20908;SDS011;10614;53.198;6.570;2022-09-09T00:37:56;4.57;;;2.35;;
20908;SDS011;10614;53.198;6.570;2022-09-09T00:40:05;5.13;;;2.30;;
20908;SDS011;10614;53.198;6.570;2022-09-09T00:42:20;5.95;;;3.15;;
20908;SDS011;10614;53.198;6.570;2022-09-09T00:44:28;2.95;;;1.92;;
20908;SDS011;10614;53.198;6.570;2022-09-09T00:46:41;3.22;;;2.05;;
20908;SDS011;10614;53.198;6.570;2022-09-09T00:48:58;3.33;;;2.17;;
20908;SDS011;10614;53.198;6.570;2022-09-09T00:51:07;4.47;;;2.35;;
20908;SDS011;10614;53.198;6.570;2022-09-09T00:53:20;3.58;;;1.90;;
20908;SDS011;10614;53.198;6.570;2022-09-09T00:55:33;3.45;;;2.10;;
20908;SDS011;10614;53.198;6.570;2022-09-09T00:57:41;4.68;;;2.28;;
20908;SDS011;10614;53.198;6.570;2022-09-09T00:59:46;3.85;;;1.98;;
20908;SDS011;10614;53.198;6.570;2022-09-09T01:01:50;4.45;;;2.22;;
20908;SDS011;10614;53.198;6.570;2022-09-09T01:03:53;3.65;;;1.88;;
20908;SDS011;10614;53.198;6.570;2022-09-09T01:06:00;2.85;;;1.83;;
20908;SDS011;10614;53.198;6.570;2022-09-09T01:08:05;4.85;;;2.33;;
20908;SDS011;10614;53.198;6.570;2022-09-09T01:10:29;3.40;;;1.95;;
20908;SDS011;10614;53.198;6.570;2022-09-09T01:12:39;4.55;;;1.83;;
20908;SDS011;10614;53.198;6.570;2022-09-09T01:16:48;3.33;;;2.10;;
20908;SDS011;10614;53.198;6.570;2022-09-09T01:18:55;3.20;;;1.85;;
20908;SDS011;10614;53.198;6.570;2022-09-09T01:21:01;3.65;;;1.75;;
20908;SDS011;10614;53.198;6.570;2022-09-09T01:23:15;2.83;;;1.83;;
20908;SDS011;10614;53.198;6.570;2022-09-09T01:25:29;3.33;;;1.80;;
20908;SDS011;10614;53.198;6.570;2022-09-09T01:27:48;2.75;;;1.88;;
20908;SDS011;10614;53.198;6.570;2022-09-09T01:29:52;3.55;;;1.98;;
20908;SDS011;10614;53.198;6.570;2022-09-09T01:31:55;3.28;;;1.85;;
20908;SDS011;10614;53.198;6.570;2022-09-09T01:33:58;2.90;;;1.88;;
20908;SDS011;10614;53.198;6.570;2022-09-09T01:36:00;3.67;;;2.40;;
20908;SDS011;10614;53.198;6.570;2022-09-09T01:38:09;3.72;;;1.88;;
20908;SDS011;10614;53.198;6.570;2022-09-09T01:40:11;4.75;;;1.95;;
20908;SDS011;10614;53.198;6.570;2022-09-09T01:42:13;4.63;;;2.40;;
20908;SDS011;10614;53.198;6.570;2022-09-09T01:44:18;5.55;;;2.58;;
20908;SDS011;10614;53.198;6.570;2022-09-09T01:46:21;3.92;;;2.15;;
20908;SDS011;10614;53.198;6.570;2022-09-09T01:48:24;3.10;;;1.88;;
20908;SDS011;10614;53.198;6.570;2022-09-09T01:50:26;3.78;;;2.30;;
20908;SDS011;10614;53.198;6.570;2022-09-09T01:52:28;3.25;;;2.13;;
20908;SDS011;10614;53.198;6.570;2022-09-09T01:54:31;2.90;;;1.52;;
20908;SDS011;10614;53.198;6.570;2022-09-09T01:56:40;4.85;;;2.20;;
20908;SDS011;10614;53.198;6.570;2022-09-09T01:58:52;2.85;;;1.80;;
20908;SDS011;10614;53.198;6.570;2022-09-09T02:01:06;3.53;;;1.77;;
20908;SDS011;10614;53.198;6.570;2022-09-09T02:03:15;2.75;;;1.73;;
20908;SDS011;10614;53.198;6.570;2022-09-09T02:05:27;3.38;;;2.08;;
20908;SDS011;10614;53.198;6.570;2022-09-09T02:07:38;4.63;;;2.08;;
20908;SDS011;10614;53.198;6.570;2022-09-09T02:09:41;3.72;;;2.00;;
20908;SDS011;10614;53.198;6.570;2022-09-09T02:11:48;3.55;;;2.20;;
20908;SDS011;10614;53.198;6.570;2022-09-09T02:14:00;3.53;;;2.15;;
20908;SDS011;10614;53.198;6.570;2022-09-09T02:16:08;3.90;;;2.10;;
20908;SDS011;10614;53.198;6.570;2022-09-09T02:18:17;2.80;;;1.92;;
20908;SDS011;10614;53.198;6.570;2022-09-09T02:20:25;4.25;;;2.45;;
20908;SDS011;10614;53.198;6.570;2022-09-09T02:22:29;4.13;;;2.80;;
20908;SDS011;10614;53.198;6.570;2022-09-09T02:24:36;4.30;;;2.35;;
20908;SDS011;10614;53.198;6.570;2022-09-09T02:26:40;4.43;;;2.25;;
20908;SDS011;10614;53.198;6.570;2022-09-09T02:28:44;6.07;;;3.37;;
20908;SDS011;10614;53.198;6.570;2022-09-09T02:30:45;4.55;;;2.40;;
20908;SDS011;10614;53.198;6.570;2022-09-09T02:32:56;3.65;;;2.28;;
20908;SDS011;10614;53.198;6.570;2022-09-09T02:35:02;3.90;;;2.42;;
20908;SDS011;10614;53.198;6.570;2022-09-09T02:37:08;3.95;;;2.58;;
20908;SDS011;10614;53.198;6.570;2022-09-09T02:39:12;3.85;;;2.30;;
20908;SDS011;10614;53.198;6.570;2022-09-09T02:41:14;3.90;;;2.33;;
20908;SDS011;10614;53.198;6.570;2022-09-09T02:43:16;5.57;;;2.38;;
20908;SDS011;10614;53.198;6.570;2022-09-09T02:45:19;3.47;;;2.20;;
20908;SDS011;10614;53.198;6.570;2022-09-09T02:47:26;5.93;;;2.50;;
20908;SDS011;10614;53.198;6.570;2022-09-09T02:49:40;3.95;;;2.35;;
20908;SDS011;10614;53.198;6.570;2022-09-09T02:51:50;4.57;;;2.33;;
20908;SDS011;10614;53.198;6.570;2022-09-09T02:54:03;3.60;;;1.98;;
20908;SDS011;10614;53.198;6.570;2022-09-09T02:56:15;4.18;;;2.28;;
20908;SDS011;10614;53.198;6.570;2022-09-09T02:58:18;3.35;;;2.22;;
20908;SDS011;10614;53.198;6.570;2022-09-09T03:00:24;5.03;;;2.22;;
20908;SDS011;10614;53.198;6.570;2022-09-09T03:02:27;4.18;;;2.13;;
20908;SDS011;10614;53.198;6.570;2022-09-09T03:04:28;3.88;;;2.00;;
20908;SDS011;10614;53.198;6.570;2022-09-09T03:06:32;3.58;;;1.98;;
20908;SDS011;10614;53.198;6.570;2022-09-09T03:08:35;3.58;;;2.65;;
20908;SDS011;10614;53.198;6.570;2022-09-09T03:10:37;5.57;;;2.45;;
20908;SDS011;10614;53.198;6.570;2022-09-09T03:12:38;3.83;;;2.30;;
20908;SDS011;10614;53.198;6.570;2022-09-09T03:14:40;4.68;;;2.42;;
20908;SDS011;10614;53.198;6.570;2022-09-09T03:16:41;3.35;;;2.10;;
20908;SDS011;10614;53.198;6.570;2022-09-09T03:18:43;7.35;;;2.35;;
20908;SDS011;10614;53.198;6.570;2022-09-09T03:20:46;3.80;;;2.17;;
20908;SDS011;10614;53.198;6.570;2022-09-09T03:22:50;4.45;;;2.47;;
20908;SDS011;10614;53.198;6.570;2022-09-09T03:24:51;4.38;;;2.38;;
20908;SDS011;10614;53.198;6.570;2022-09-09T03:26:53;5.03;;;2.28;;
20908;SDS011;10614;53.198;6.570;2022-09-09T03:28:55;3.40;;;1.95;;
20908;SDS011;10614;53.198;6.570;2022-09-09T03:31:00;3.90;;;2.30;;
20908;SDS011;10614;53.198;6.570;2022-09-09T03:33:02;3.53;;;2.05;;
20908;SDS011;10614;53.198;6.570;2022-09-09T03:35:04;3.30;;;2.15;;
20908;SDS011;10614;53.198;6.570;2022-09-09T03:37:06;3.67;;;1.90;;
20908;SDS011;10614;53.198;6.570;2022-09-09T03:39:09;2.67;;;1.70;;
20908;SDS011;10614;53.198;6.570;2022-09-09T03:41:10;4.75;;;2.28;;
20908;SDS011;10614;53.198;6.570;2022-09-09T03:43:12;3.42;;;1.60;;
20908;SDS011;10614;53.198;6.570;2022-09-09T03:45:16;2.30;;;1.50;;
20908;SDS011;10614;53.198;6.570;2022-09-09T03:47:18;3.53;;;1.88;;
20908;SDS011;10614;53.198;6.570;2022-09-09T03:49:21;2.15;;;1.45;;
20908;SDS011;10614;53.198;6.570;2022-09-09T03:51:24;2.22;;;1.40;;
20908;SDS011;10614;53.198;6.570;2022-09-09T03:53:25;2.00;;;1.33;;
20908;SDS011;10614;53.198;6.570;2022-09-09T03:55:29;2.83;;;1.63;;
20908;SDS011;10614;53.198;6.570;2022-09-09T03:57:30;2.20;;;1.38;;
20908;SDS011;10614;53.198;6.570;2022-09-09T03:59:34;1.92;;;1.27;;
20908;SDS011;10614;53.198;6.570;2022-09-09T04:01:36;3.45;;;1.70;;
20908;SDS011;10614;53.198;6.570;2022-09-09T04:03:38;3.28;;;1.60;;
20908;SDS011;10614;53.198;6.570;2022-09-09T04:05:40;5.43;;;2.88;;
20908;SDS011;10614;53.198;6.570;2022-09-09T04:07:42;3.75;;;1.80;;
20908;SDS011;10614;53.198;6.570;2022-09-09T04:09:44;4.20;;;1.80;;
20908;SDS011;10614;53.198;6.570;2022-09-09T04:11:47;2.97;;;1.63;;
20908;SDS011;10614;53.198;6.570;2022-09-09T04:13:49;3.10;;;1.40;;
20908;SDS011;10614;53.198;6.570;2022-09-09T04:15:51;2.28;;;1.20;;
20908;SDS011;10614;53.198;6.570;2022-09-09T04:17:53;2.65;;;1.15;;
20908;SDS011;10614;53.198;6.570;2022-09-09T04:19:55;2.65;;;1.15;;
20908;SDS011;10614;53.198;6.570;2022-09-09T04:21:57;1.80;;;1.13;;
20908;SDS011;10614;53.198;6.570;2022-09-09T04:23:59;3.97;;;1.55;;
20908;SDS011;10614;53.198;6.570;2022-09-09T04:26:01;1.88;;;1.00;;
20908;SDS011;10614;53.198;6.570;2022-09-09T04:28:05;1.00;;;0.82;;
20908;SDS011;10614;53.198;6.570;2022-09-09T04:30:07;2.67;;;0.93;;
20908;SDS011;10614;53.198;6.570;2022-09-09T04:32:10;2.63;;;0.93;;
20908;SDS011;10614;53.198;6.570;2022-09-09T04:34:11;3.35;;;1.33;;
20908;SDS011;10614;53.198;6.570;2022-09-09T04:36:13;1.90;;;0.95;;
20908;SDS011;10614;53.198;6.570;2022-09-09T04:38:15;1.80;;;0.98;;
20908;SDS011;10614;53.198;6.570;2022-09-09T04:40:17;3.55;;;1.13;;
20908;SDS011;10614;53.198;6.570;2022-09-09T04:42:19;1.58;;;0.80;;
20908;SDS011;10614;53.198;6.570;2022-09-09T04:44:22;3.28;;;1.70;;
20908;SDS011;10614;53.198;6.570;2022-09-09T04:46:24;2.13;;;1.13;;
20908;SDS011;10614;53.198;6.570;2022-09-09T04:48:26;2.10;;;1.13;;
20908;SDS011;10614;53.198;6.570;2022-09-09T04:50:27;2.17;;;1.02;;
20908;SDS011;10614;53.198;6.570;2022-09-09T04:52:29;1.80;;;0.90;;
20908;SDS011;10614;53.198;6.570;2022-09-09T04:54:31;2.33;;;1.00;;
20908;SDS011;10614;53.198;6.570;2022-09-09T04:56:33;1.65;;;1.08;;
20908;SDS011;10614;53.198;6.570;2022-09-09T04:58:36;2.55;;;1.35;;
20908;SDS011;10614;53.198;6.570;2022-09-09T05:00:39;1.30;;;0.90;;
20908;SDS011;10614;53.198;6.570;2022-09-09T05:02:42;2.40;;;1.10;;
20908;SDS011;10614;53.198;6.570;2022-09-09T05:04:44;3.33;;;1.25;;
20908;SDS011;10614;53.198;6.570;2022-09-09T05:06:45;1.50;;;1.10;;
20908;SDS011;10614;53.198;6.570;2022-09-09T05:08:47;2.30;;;1.30;;
20908;SDS011;10614;53.198;6.570;2022-09-09T05:10:49;2.38;;;1.20;;
20908;SDS011;10614;53.198;6.570;2022-09-09T05:12:53;2.03;;;1.48;;
20908;SDS011;10614;53.198;6.570;2022-09-09T05:14:56;3.40;;;1.67;;
20908;SDS011;10614;53.198;6.570;2022-09-09T05:16:59;1.92;;;1.30;;
20908;SDS011;10614;53.198;6.570;2022-09-09T05:19:00;2.15;;;1.40;;
20908;SDS011;10614;53.198;6.570;2022-09-09T05:21:03;2.53;;;1.27;;
20908;SDS011;10614;53.198;6.570;2022-09-09T05:23:06;2.72;;;1.52;;
20908;SDS011;10614;53.198;6.570;2022-09-09T05:25:09;3.72;;;1.88;;
20908;SDS011;10614;53.198;6.570;2022-09-09T05:27:11;2.78;;;1.42;;
20908;SDS011;10614;53.198;6.570;2022-09-09T05:29:13;3.97;;;1.77;;
20908;SDS011;10614;53.198;6.570;2022-09-09T05:31:15;2.60;;;1.42;;
20908;SDS011;10614;53.198;6.570;2022-09-09T05:33:19;2.75;;;1.48;;
20908;SDS011;10614;53.198;6.570;2022-09-09T05:35:22;2.63;;;1.50;;
20908;SDS011;10614;53.198;6.570;2022-09-09T05:37:24;2.10;;;1.20;;
20908;SDS011;10614;53.198;6.570;2022-09-09T05:39:25;2.42;;;1.35;;
20908;SDS011;10614;53.198;6.570;2022-09-09T05:41:27;2.33;;;1.38;;
20908;SDS011;10614;53.198;6.570;2022-09-09T05:43:29;3.65;;;1.90;;
20908;SDS011;10614;53.198;6.570;2022-09-09T05:45:31;2.30;;;1.40;;
20908;SDS011;10614;53.198;6.570;2022-09-09T05:47:33;3.30;;;1.70;;
20908;SDS011;10614;53.198;6.570;2022-09-09T05:49:36;2.92;;;1.90;;
20908;SDS011;10614;53.198;6.570;2022-09-09T05:51:38;4.25;;;1.67;;
20908;SDS011;10614;53.198;6.570;2022-09-09T05:53:40;2.67;;;1.80;;
20908;SDS011;10614;53.198;6.570;2022-09-09T05:55:42;5.07;;;2.53;;
20908;SDS011;10614;53.198;6.570;2022-09-09T05:57:48;4.18;;;2.38;;
20908;SDS011;10614;53.198;6.570;2022-09-09T05:59:51;3.20;;;1.85;;
20908;SDS011;10614;53.198;6.570;2022-09-09T06:01:53;3.55;;;2.03;;
20908;SDS011;10614;53.198;6.570;2022-09-09T06:03:55;4.88;;;2.53;;
20908;SDS011;10614;53.198;6.570;2022-09-09T06:06:00;4.20;;;1.92;;
20908;SDS011;10614;53.198;6.570;2022-09-09T06:08:02;3.20;;;1.95;;
20908;SDS011;10614;53.198;6.570;2022-09-09T06:10:04;3.95;;;2.47;;
20908;SDS011;10614;53.198;6.570;2022-09-09T06:12:06;4.47;;;2.30;;
20908;SDS011;10614;53.198;6.570;2022-09-09T06:14:09;3.50;;;2.25;;
20908;SDS011;10614;53.198;6.570;2022-09-09T06:16:11;3.63;;;2.10;;
20908;SDS011;10614;53.198;6.570;2022-09-09T06:18:14;5.18;;;2.70;;
20908;SDS011;10614;53.198;6.570;2022-09-09T06:20:18;3.35;;;1.90;;
20908;SDS011;10614;53.198;6.570;2022-09-09T06:22:23;3.97;;;2.20;;
20908;SDS011;10614;53.198;6.570;2022-09-09T06:24:25;4.47;;;2.28;;
20908;SDS011;10614;53.198;6.570;2022-09-09T06:26:27;3.28;;;2.08;;
20908;SDS011;10614;53.198;6.570;2022-09-09T06:28:30;2.97;;;1.67;;
20908;SDS011;10614;53.198;6.570;2022-09-09T06:30:32;3.95;;;2.45;;
20908;SDS011;10614;53.198;6.570;2022-09-09T06:32:34;5.07;;;2.42;;
20908;SDS011;10614;53.198;6.570;2022-09-09T06:34:37;3.38;;;1.83;;
20908;SDS011;10614;53.198;6.570;2022-09-09T06:36:39;4.65;;;2.22;;
20908;SDS011;10614;53.198;6.570;2022-09-09T06:38:43;3.40;;;1.95;;
20908;SDS011;10614;53.198;6.570;2022-09-09T06:40:50;3.13;;;1.92;;
20908;SDS011;10614;53.198;6.570;2022-09-09T06:42:52;6.60;;;2.20;;
20908;SDS011;10614;53.198;6.570;2022-09-09T06:44:54;3.05;;;1.95;;
20908;SDS011;10614;53.198;6.570;2022-09-09T06:46:56;3.30;;;2.00;;
20908;SDS011;10614;53.198;6.570;2022-09-09T06:48:57;2.80;;;1.92;;
20908;SDS011;10614;53.198;6.570;2022-09-09T06:51:00;4.63;;;1.95;;
20908;SDS011;10614;53.198;6.570;2022-09-09T06:53:02;2.85;;;1.95;;
20908;SDS011;10614;53.198;6.570;2022-09-09T06:55:06;4.25;;;2.10;;
20908;SDS011;10614;53.198;6.570;2022-09-09T06:57:09;4.13;;;1.90;;
20908;SDS011;10614;53.198;6.570;2022-09-09T06:59:11;3.75;;;2.17;;
20908;SDS011;10614;53.198;6.570;2022-09-09T07:01:14;3.13;;;1.83;;
20908;SDS011;10614;53.198;6.570;2022-09-09T07:03:17;3.47;;;1.93;;
20908;SDS011;10614;53.198;6.570;2022-09-09T07:05:19;4.15;;;1.70;;
20908;SDS011;10614;53.198;6.570;2022-09-09T07:07:21;3.80;;;2.17;;
20908;SDS011;10614;53.198;6.570;2022-09-09T07:09:23;3.55;;;2.10;;
20908;SDS011;10614;53.198;6.570;2022-09-09T07:11:27;5.45;;;2.30;;
20908;SDS011;10614;53.198;6.570;2022-09-09T07:13:30;4.68;;;2.30;;
20908;SDS011;10614;53.198;6.570;2022-09-09T07:15:33;4.28;;;2.22;;
20908;SDS011;10614;53.198;6.570;2022-09-09T07:17:34;3.20;;;1.92;;
20908;SDS011;10614;53.198;6.570;2022-09-09T07:19:36;3.20;;;1.70;;
20908;SDS011;10614;53.198;6.570;2022-09-09T07:21:38;4.25;;;2.45;;
20908;SDS011;10614;53.198;6.570;2022-09-09T07:23:40;4.30;;;2.03;;
20908;SDS011;10614;53.198;6.570;2022-09-09T07:25:44;3.88;;;2.10;;
20908;SDS011;10614;53.198;6.570;2022-09-09T07:27:47;4.80;;;2.22;;
20908;SDS011;10614;53.198;6.570;2022-09-09T07:29:48;3.58;;;2.05;;
20908;SDS011;10614;53.198;6.570;2022-09-09T07:31:50;3.65;;;2.08;;
20908;SDS011;10614;53.198;6.570;2022-09-09T07:33:51;3.33;;;1.90;;
20908;SDS011;10614;53.198;6.570;2022-09-09T07:35:53;3.72;;;1.85;;
20908;SDS011;10614;53.198;6.570;2022-09-09T07:37:55;4.15;;;2.22;;
20908;SDS011;10614;53.198;6.570;2022-09-09T07:39:57;6.95;;;1.98;;
20908;SDS011;10614;53.198;6.570;2022-09-09T07:41:59;4.93;;;2.03;;
20908;SDS011;10614;53.198;6.570;2022-09-09T07:44:05;4.18;;;2.33;;
20908;SDS011;10614;53.198;6.570;2022-09-09T07:46:07;2.05;;;1.42;;
20908;SDS011;10614;53.198;6.570;2022-09-09T07:48:10;3.22;;;1.80;;
20908;SDS011;10614;53.198;6.570;2022-09-09T07:50:12;2.53;;;1.63;;
20908;SDS011;10614;53.198;6.570;2022-09-09T07:52:13;3.75;;;1.92;;
20908;SDS011;10614;53.198;6.570;2022-09-09T07:54:16;3.25;;;1.95;;
20908;SDS011;10614;53.198;6.570;2022-09-09T07:56:20;3.13;;;1.90;;
20908;SDS011;10614;53.198;6.570;2022-09-09T07:58:23;2.70;;;1.65;;
20908;SDS011;10614;53.198;6.570;2022-09-09T08:00:26;3.67;;;2.08;;
20908;SDS011;10614;53.198;6.570;2022-09-09T08:02:28;5.07;;;2.10;;
20908;SDS011;10614;53.198;6.570;2022-09-09T08:04:30;2.83;;;1.58;;
20908;SDS011;10614;53.198;6.570;2022-09-09T08:06:33;3.83;;;2.28;;
20908;SDS011;10614;53.198;6.570;2022-09-09T08:08:37;3.45;;;1.80;;
20908;SDS011;10614;53.198;6.570;2022-09-09T08:10:41;5.22;;;1.70;;
20908;SDS011;10614;53.198;6.570;2022-09-09T08:12:43;3.55;;;2.05;;
20908;SDS011;10614;53.198;6.570;2022-09-09T08:14:45;2.95;;;1.85;;
20908;SDS011;10614;53.198;6.570;2022-09-09T08:16:50;5.00;;;1.80;;
20908;SDS011;10614;53.198;6.570;2022-09-09T08:18:53;2.63;;;1.70;;
20908;SDS011;10614;53.198;6.570;2022-09-09T08:20:55;3.97;;;1.90;;
20908;SDS011;10614;53.198;6.570;2022-09-09T08:22:56;3.33;;;1.80;;
20908;SDS011;10614;53.198;6.570;2022-09-09T08:24:59;3.40;;;1.92;;
20908;SDS011;10614;53.198;6.570;2022-09-09T08:27:00;2.63;;;1.80;;
20908;SDS011;10614;53.198;6.570;2022-09-09T08:29:02;6.13;;;1.88;;
20908;SDS011;10614;53.198;6.570;2022-09-09T08:31:10;3.45;;;1.70;;
20908;SDS011;10614;53.198;6.570;2022-09-09T08:33:14;3.97;;;1.70;;
20908;SDS011;10614;53.198;6.570;2022-09-09T08:35:16;4.28;;;2.17;;
20908;SDS011;10614;53.198;6.570;2022-09-09T08:37:18;5.00;;;1.77;;
20908;SDS011;10614;53.198;6.570;2022-09-09T08:39:21;2.28;;;1.50;;
20908;SDS011;10614;53.198;6.570;2022-09-09T08:41:31;2.58;;;1.27;;
20908;SDS011;10614;53.198;6.570;2022-09-09T08:43:41;3.38;;;1.90;;
20908;SDS011;10614;53.198;6.570;2022-09-09T08:45:48;3.42;;;1.50;;
20908;SDS011;10614;53.198;6.570;2022-09-09T08:48:00;3.97;;;1.38;;
20908;SDS011;10614;53.198;6.570;2022-09-09T08:50:17;2.28;;;1.50;;
20908;SDS011;10614;53.198;6.570;2022-09-09T08:52:25;3.28;;;1.42;;
20908;SDS011;10614;53.198;6.570;2022-09-09T08:54:33;2.80;;;1.77;;
20908;SDS011;10614;53.198;6.570;2022-09-09T08:56:36;3.53;;;1.48;;
20908;SDS011;10614;53.198;6.570;2022-09-09T08:58:41;3.10;;;1.50;;
20908;SDS011;10614;53.198;6.570;2022-09-09T09:00:54;5.80;;;1.77;;
20908;SDS011;10614;53.198;6.570;2022-09-09T09:03:06;4.10;;;1.80;;
20908;SDS011;10614;53.198;6.570;2022-09-09T09:05:20;3.50;;;2.03;;
20908;SDS011;10614;53.198;6.570;2022-09-09T09:07:32;5.95;;;2.50;;
20908;SDS011;10614;53.198;6.570;2022-09-09T09:09:49;4.95;;;2.15;;
20908;SDS011;10614;53.198;6.570;2022-09-09T09:11:59;5.95;;;1.88;;
20908;SDS011;10614;53.198;6.570;2022-09-09T09:14:03;3.50;;;1.90;;
20908;SDS011;10614;53.198;6.570;2022-09-09T09:16:13;2.95;;;1.83;;
20908;SDS011;10614;53.198;6.570;2022-09-09T09:18:22;3.83;;;1.88;;
20908;SDS011;10614;53.198;6.570;2022-09-09T09:20:26;3.28;;;2.05;;
20908;SDS011;10614;53.198;6.570;2022-09-09T09:22:36;4.10;;;2.00;;
20908;SDS011;10614;53.198;6.570;2022-09-09T09:24:45;2.63;;;1.38;;
20908;SDS011;10614;53.198;6.570;2022-09-09T09:26:53;3.28;;;1.75;;
20908;SDS011;10614;53.198;6.570;2022-09-09T09:28:55;3.15;;;1.80;;
20908;SDS011;10614;53.198;6.570;2022-09-09T09:30:59;3.70;;;1.80;;
20908;SDS011;10614;53.198;6.570;2022-09-09T09:33:05;2.30;;;1.67;;
20908;SDS011;10614;53.198;6.570;2022-09-09T09:35:13;3.08;;;1.90;;
20908;SDS011;10614;53.198;6.570;2022-09-09T09:37:17;4.72;;;1.92;;
20908;SDS011;10614;53.198;6.570;2022-09-09T09:39:29;2.60;;;1.95;;
20908;SDS011;10614;53.198;6.570;2022-09-09T09:41:32;2.85;;;1.60;;
20908;SDS011;10614;53.198;6.570;2022-09-09T09:45:41;3.88;;;2.08;;
20908;SDS011;10614;53.198;6.570;2022-09-09T09:47:45;2.70;;;1.60;;
20908;SDS011;10614;53.198;6.570;2022-09-09T09:49:53;2.50;;;1.70;;
20908;SDS011;10614;53.198;6.570;2022-09-09T09:51:59;2.70;;;1.80;;
20908;SDS011;10614;53.198;6.570;2022-09-09T09:54:17;2.45;;;1.20;;
20908;SDS011;10614;53.198;6.570;2022-09-09T09:56:26;2.53;;;1.58;;
20908;SDS011;10614;53.198;6.570;2022-09-09T09:58:30;2.75;;;1.55;;
20908;SDS011;10614;53.198;6.570;2022-09-09T10:00:34;2.35;;;1.48;;
20908;SDS011;10614;53.198;6.570;2022-09-09T10:02:37;3.17;;;2.03;;
20908;SDS011;10614;53.198;6.570;2022-09-09T10:04:40;3.40;;;1.42;;
20908;SDS011;10614;53.198;6.570;2022-09-09T10:06:42;3.78;;;1.65;;
20908;SDS011;10614;53.198;6.570;2022-09-09T10:08:44;6.47;;;1.70;;
20908;SDS011;10614;53.198;6.570;2022-09-09T10:10:54;3.67;;;1.25;;
20908;SDS011;10614;53.198;6.570;2022-09-09T10:13:09;3.38;;;1.42;;
20908;SDS011;10614;53.198;6.570;2022-09-09T10:17:46;1.35;;;0.95;;
20908;SDS011;10614;53.198;6.570;2022-09-09T10:22:12;2.03;;;1.08;;
20908;SDS011;10614;53.198;6.570;2022-09-09T10:24:26;2.85;;;0.90;;
20908;SDS011;10614;53.198;6.570;2022-09-09T10:26:42;1.70;;;0.90;;
20908;SDS011;10614;53.198;6.570;2022-09-09T10:28:56;1.58;;;0.88;;
20908;SDS011;10614;53.198;6.570;2022-09-09T10:31:11;2.75;;;1.15;;
20908;SDS011;10614;53.198;6.570;2022-09-09T10:33:21;3.40;;;1.23;;
20908;SDS011;10614;53.198;6.570;2022-09-09T10:35:30;1.90;;;0.90;;
20908;SDS011;10614;53.198;6.570;2022-09-09T10:37:40;2.17;;;0.98;;
20908;SDS011;10614;53.198;6.570;2022-09-09T10:39:47;1.67;;;0.80;;
20908;SDS011;10614;53.198;6.570;2022-09-09T10:42:00;1.35;;;0.90;;
20908;SDS011;10614;53.198;6.570;2022-09-09T10:44:15;2.13;;;1.00;;
20908;SDS011;10614;53.198;6.570;2022-09-09T10:46:26;1.90;;;0.80;;
20908;SDS011;10614;53.198;6.570;2022-09-09T10:48:40;4.30;;;1.17;;
20908;SDS011;10614;53.198;6.570;2022-09-09T10:50:54;2.95;;;0.95;;
20908;SDS011;10614;53.198;6.570;2022-09-09T10:53:08;1.75;;;0.73;;
20908;SDS011;10614;53.198;6.570;2022-09-09T10:55:16;2.95;;;1.00;;
20908;SDS011;10614;53.198;6.570;2022-09-09T10:57:29;1.45;;;0.90;;
20908;SDS011;10614;53.198;6.570;2022-09-09T10:59:36;2.15;;;0.88;;
20908;SDS011;10614;53.198;6.570;2022-09-09T11:01:43;2.05;;;1.30;;
20908;SDS011;10614;53.198;6.570;2022-09-09T11:03:50;1.67;;;0.95;;
20908;SDS011;10614;53.198;6.570;2022-09-09T11:05:56;1.65;;;0.80;;
20908;SDS011;10614;53.198;6.570;2022-09-09T11:08:02;1.45;;;0.88;;
20908;SDS011;10614;53.198;6.570;2022-09-09T11:10:14;1.73;;;0.82;;
20908;SDS011;10614;53.198;6.570;2022-09-09T11:12:22;1.38;;;0.70;;
20908;SDS011;10614;53.198;6.570;2022-09-09T11:14:28;2.35;;;1.05;;
20908;SDS011;10614;53.198;6.570;2022-09-09T11:16:34;1.45;;;0.85;;
20908;SDS011;10614;53.198;6.570;2022-09-09T11:18:42;4.07;;;1.10;;
20908;SDS011;10614;53.198;6.570;2022-09-09T11:20:45;1.00;;;0.75;;
20908;SDS011;10614;53.198;6.570;2022-09-09T11:22:51;1.98;;;0.80;;
20908;SDS011;10614;53.198;6.570;2022-09-09T11:24:57;1.65;;;0.70;;
20908;SDS011;10614;53.198;6.570;2022-09-09T11:27:07;1.27;;;0.60;;
20908;SDS011;10614;53.198;6.570;2022-09-09T11:29:25;2.97;;;0.75;;
20908;SDS011;10614;53.198;6.570;2022-09-09T11:31:53;2.05;;;1.00;;
20908;SDS011;10614;53.198;6.570;2022-09-09T11:34:10;1.52;;;0.75;;
20908;SDS011;10614;53.198;6.570;2022-09-09T11:38:32;2.22;;;0.90;;
20908;SDS011;10614;53.198;6.570;2022-09-09T11:40:42;0.80;;;0.55;;
20908;SDS011;10614;53.198;6.570;2022-09-09T11:42:44;2.38;;;0.70;;
20908;SDS011;10614;53.198;6.570;2022-09-09T11:44:50;0.60;;;0.45;;
20908;SDS011;10614;53.198;6.570;2022-09-09T11:46:53;2.00;;;0.68;;
20908;SDS011;10614;53.198;6.570;2022-09-09T11:48:58;3.53;;;1.15;;
20908;SDS011;10614;53.198;6.570;2022-09-09T11:51:02;1.10;;;0.57;;
20908;SDS011;10614;53.198;6.570;2022-09-09T11:53:20;1.00;;;0.60;;
20908;SDS011;10614;53.198;6.570;2022-09-09T11:55:24;2.35;;;0.70;;
20908;SDS011;10614;53.198;6.570;2022-09-09T11:57:30;2.53;;;0.63;;
20908;SDS011;10614;53.198;6.570;2022-09-09T11:59:35;1.42;;;0.77;;
20908;SDS011;10614;53.198;6.570;2022-09-09T12:01:39;1.20;;;0.70;;
20908;SDS011;10614;53.198;6.570;2022-09-09T12:03:43;1.73;;;0.90;;
20908;SDS011;10614;53.198;6.570;2022-09-09T12:05:47;2.25;;;0.77;;
20908;SDS011;10614;53.198;6.570;2022-09-09T12:07:54;1.15;;;0.60;;
20908;SDS011;10614;53.198;6.570;2022-09-09T12:10:01;1.10;;;0.60;;
20908;SDS011;10614;53.198;6.570;2022-09-09T12:12:16;1.60;;;0.82;;
20908;SDS011;10614;53.198;6.570;2022-09-09T12:14:34;1.58;;;0.60;;
20908;SDS011;10614;53.198;6.570;2022-09-09T12:16:39;0.75;;;0.70;;
20908;SDS011;10614;53.198;6.570;2022-09-09T12:18:40;2.40;;;0.70;;
20908;SDS011;10614;53.198;6.570;2022-09-09T12:20:50;2.17;;;0.63;;
20908;SDS011;10614;53.198;6.570;2022-09-09T12:23:07;1.33;;;0.60;;
20908;SDS011;10614;53.198;6.570;2022-09-09T12:25:30;1.65;;;0.65;;
20908;SDS011;10614;53.198;6.570;2022-09-09T12:27:44;0.50;;;0.40;;
20908;SDS011;10614;53.198;6.570;2022-09-09T12:29:57;0.98;;;0.52;;
20908;SDS011;10614;53.198;6.570;2022-09-09T12:32:06;1.38;;;0.60;;
20908;SDS011;10614;53.198;6.570;2022-09-09T12:34:11;2.28;;;0.60;;
20908;SDS011;10614;53.198;6.570;2022-09-09T12:36:18;4.50;;;0.60;;
20908;SDS011;10614;53.198;6.570;2022-09-09T12:38:25;2.28;;;0.70;;
20908;SDS011;10614;53.198;6.570;2022-09-09T12:40:31;0.60;;;0.40;;
20908;SDS011;10614;53.198;6.570;2022-09-09T12:42:39;0.82;;;0.60;;
20908;SDS011;10614;53.198;6.570;2022-09-09T12:44:49;0.65;;;0.57;;
20908;SDS011;10614;53.198;6.570;2022-09-09T12:46:52;1.80;;;0.60;;
20908;SDS011;10614;53.198;6.570;2022-09-09T12:48:56;0.70;;;0.55;;